Time,TemperatureF,DewpointF,PressureIn,WindDirection,WindDirectionDegrees,WindSpeedMPH,WindSpeedGustMPH,Humidity,HourlyPrecipIn,Conditions,Clouds,dailyrainin,SoftwareType,DateUTC
2013-06-09 00:22:00,57.0,54.0,29.90,ESE,110,3.0,-999.0,91,0.00,,,-99.99,,2013-06-09 07:22:00,
2013-06-09 00:32:00,57.0,54.0,29.90,ESE,110,3.0,-999.0,91,0.00,,,-99.99,,2013-06-09 07:32:00,
2013-06-09 00:42:00,57.0,54.0,29.90,ESE,110,3.0,-999.0,91,0.00,,,-99.99,,2013-06-09 07:42:00,
2013-06-09 00:52:00,57.0,54.0,29.90,ESE,110,3.0,-999.0,91,0.00,,,-99.99,,2013-06-09 07:52:00,
2013-06-09 01:22:00,57.0,55.0,29.90,North,0,0.0,-999.0,92,0.00,,,-99.99,,2013-06-09 08:22:00,
2013-06-09 01:32:00,57.0,55.0,29.90,North,0,0.0,-999.0,92,0.00,,,-99.99,,2013-06-09 08:32:00,
2013-06-09 01:42:00,57.0,55.0,29.90,North,0,0.0,-999.0,92,0.00,,,-99.99,,2013-06-09 08:42:00,
2013-06-09 01:53:00,57.0,55.0,29.90,North,0,0.0,-999.0,92,0.00,,,-99.99,,2013-06-09 08:53:00,
2013-06-09 02:22:00,57.0,55.0,29.89,North,0,0.0,-999.0,93,0.00,,,-99.99,,2013-06-09 09:22:00,
2013-06-09 02:33:00,57.0,55.0,29.89,North,0,0.0,-999.0,93,0.00,,,-99.99,,2013-06-09 09:33:00,
2013-06-09 02:43:00,57.0,55.0,29.89,North,0,0.0,-999.0,93,0.00,,,-99.99,,2013-06-09 09:43:00,
2013-06-09 02:52:00,57.0,55.0,29.89,North,0,0.0,-999.0,93,0.00,,,-99.99,,2013-06-09 09:52:00,
2013-06-09 03:23:00,57.0,55.0,29.89,North,0,0.0,-999.0,93,0.00,,,-99.99,,2013-06-09 10:23:00,
2013-06-09 03:32:00,57.0,55.0,29.89,North,0,0.0,-999.0,93,0.00,,,-99.99,,2013-06-09 10:32:00,
2013-06-09 03:43:00,57.0,55.0,29.89,North,0,0.0,-999.0,93,0.00,,,-99.99,,2013-06-09 10:43:00,
2013-06-09 03:52:00,57.0,55.0,29.89,North,0,0.0,-999.0,93,0.00,,,-99.99,,2013-06-09 10:52:00,
2013-06-09 04:22:00,57.0,55.0,29.89,North,0,0.0,-999.0,93,0.00,,,-99.99,,2013-06-09 11:22:00,
2013-06-09 04:32:00,57.0,55.0,29.89,North,0,0.0,-999.0,93,0.00,,,-99.99,,2013-06-09 11:32:00,
2013-06-09 04:42:00,57.0,55.0,29.89,North,0,0.0,-999.0,93,0.00,,,-99.99,,2013-06-09 11:42:00,
2013-06-09 04:52:00,57.0,55.0,29.89,North,0,0.0,-999.0,93,0.00,,,-99.99,,2013-06-09 11:52:00,
2013-06-09 05:22:00,56.0,54.0,29.88,North,0,0.0,-999.0,93,0.00,,,-99.99,,2013-06-09 12:22:00,
2013-06-09 05:32:00,56.0,54.0,29.88,North,0,0.0,-999.0,93,0.00,,,-99.99,,2013-06-09 12:32:00,
2013-06-09 05:42:00,56.0,54.0,29.88,North,0,0.0,-999.0,93,0.00,,,-99.99,,2013-06-09 12:42:00,
2013-06-09 05:52:00,56.0,54.0,29.88,North,0,0.0,-999.0,93,0.00,,,-99.99,,2013-06-09 12:52:00,
2013-06-09 06:22:00,56.0,54.0,29.89,North,0,0.0,-999.0,94,0.00,,,-99.99,,2013-06-09 13:22:00,
2013-06-09 06:32:00,56.0,54.0,29.89,North,0,0.0,-999.0,94,0.00,,,-99.99,,2013-06-09 13:32:00,
2013-06-09 06:42:00,56.0,54.0,29.89,North,0,0.0,-999.0,94,0.00,,,-99.99,,2013-06-09 13:42:00,
2013-06-09 06:52:00,56.0,54.0,29.89,North,0,0.0,-999.0,94,0.00,,,-99.99,,2013-06-09 13:52:00,
2013-06-09 07:22:00,57.0,55.0,29.90,North,0,0.0,-999.0,94,0.00,,,-99.99,,2013-06-09 14:22:00,
2013-06-09 07:32:00,57.0,55.0,29.90,North,0,0.0,-999.0,94,0.00,,,-99.99,,2013-06-09 14:32:00,
2013-06-09 07:42:00,57.0,55.0,29.90,North,0,0.0,-999.0,94,0.00,,,-99.99,,2013-06-09 14:42:00,
2013-06-09 07:52:00,57.0,55.0,29.90,North,0,0.0,-999.0,94,0.00,,,-99.99,,2013-06-09 14:52:00,
2013-06-09 08:22:00,57.0,55.0,29.91,North,0,0.0,-999.0,94,0.00,,,-99.99,,2013-06-09 15:22:00,
2013-06-09 08:33:00,57.0,55.0,29.91,North,0,0.0,-999.0,94,0.00,,,-99.99,,2013-06-09 15:33:00,
2013-06-09 08:43:00,57.0,55.0,29.91,North,0,0.0,-999.0,94,0.00,,,-99.99,,2013-06-09 15:43:00,
2013-06-09 08:53:00,57.0,55.0,29.91,North,0,0.0,-999.0,94,0.00,,,-99.99,,2013-06-09 15:53:00,
2013-06-09 09:23:00,58.0,56.0,29.92,North,0,0.0,-999.0,94,0.00,,,-99.99,,2013-06-09 16:23:00,
2013-06-09 09:33:00,58.0,56.0,29.92,North,0,0.0,-999.0,94,0.00,,,-99.99,,2013-06-09 16:33:00,
2013-06-09 09:42:00,58.0,56.0,29.92,North,0,0.0,-999.0,94,0.00,,,-99.99,,2013-06-09 16:42:00,
2013-06-09 09:53:00,58.0,56.0,29.92,North,0,0.0,-999.0,94,0.00,,,-99.99,,2013-06-09 16:53:00,
2013-06-09 10:22:00,59.0,57.0,29.92,SW,220,1.0,-999.0,94,0.00,,,-99.99,,2013-06-09 17:22:00,
2013-06-09 10:32:00,59.0,57.0,29.92,SW,220,1.0,-999.0,94,0.00,,,-99.99,,2013-06-09 17:32:00,
2013-06-09 10:42:00,59.0,57.0,29.92,SW,220,1.0,-999.0,94,0.00,,,-99.99,,2013-06-09 17:42:00,
2013-06-09 10:52:00,59.0,57.0,29.92,SW,220,1.0,-999.0,94,0.00,,,-99.99,,2013-06-09 17:52:00,
2013-06-09 11:21:00,59.0,57.0,29.93,North,0,0.0,-999.0,93,0.00,,,-99.99,,2013-06-09 18:21:00,
2013-06-09 11:32:00,59.0,57.0,29.93,North,0,0.0,-999.0,93,0.00,,,-99.99,,2013-06-09 18:32:00,
2013-06-09 11:42:00,59.0,57.0,29.93,North,0,0.0,-999.0,93,0.00,,,-99.99,,2013-06-09 18:42:00,
2013-06-09 11:52:00,59.0,57.0,29.93,North,0,0.0,-999.0,93,0.00,,,-99.99,,2013-06-09 18:52:00,
2013-06-09 12:22:00,61.0,58.0,29.93,SSW,200,1.0,-999.0,91,0.00,,,-99.99,,2013-06-09 19:22:00,
2013-06-09 12:32:00,61.0,58.0,29.93,SSW,200,1.0,-999.0,91,0.00,,,-99.99,,2013-06-09 19:32:00,
2013-06-09 12:42:00,61.0,58.0,29.93,SSW,200,1.0,-999.0,91,0.00,,,-99.99,,2013-06-09 19:42:00,
2013-06-09 12:52:00,61.0,58.0,29.93,SSW,200,1.0,-999.0,91,0.00,,,-99.99,,2013-06-09 19:52:00,
2013-06-09 13:22:00,63.0,58.0,29.93,WSW,240,3.0,-999.0,85,0.00,,,-99.99,,2013-06-09 20:22:00,
2013-06-09 13:32:00,63.0,58.0,29.93,WSW,240,3.0,-999.0,85,0.00,,,-99.99,,2013-06-09 20:32:00,
2013-06-09 13:42:00,63.0,58.0,29.93,WSW,240,3.0,-999.0,85,0.00,,,-99.99,,2013-06-09 20:42:00,
2013-06-09 13:52:00,63.0,58.0,29.93,WSW,240,3.0,-999.0,85,0.00,,,-99.99,,2013-06-09 20:52:00,
2013-06-09 14:22:00,67.0,59.0,29.91,SW,230,2.0,-999.0,76,0.00,,,-99.99,,2013-06-09 21:22:00,
2013-06-09 14:33:00,67.0,59.0,29.91,SW,230,2.0,-999.0,76,0.00,,,-99.99,,2013-06-09 21:33:00,
2013-06-09 14:43:00,67.0,59.0,29.91,SW,230,2.0,-999.0,76,0.00,,,-99.99,,2013-06-09 21:43:00,
2013-06-09 14:53:00,67.0,59.0,29.91,SW,230,2.0,-999.0,76,0.00,,,-99.99,,2013-06-09 21:53:00,
2013-06-09 15:23:00,64.0,58.0,29.91,WSW,240,4.0,-999.0,80,0.00,,,-99.99,,2013-06-09 22:23:00,
2013-06-09 15:33:00,64.0,58.0,29.91,WSW,240,4.0,-999.0,80,0.00,,,-99.99,,2013-06-09 22:33:00,
2013-06-09 15:42:00,64.0,58.0,29.91,WSW,240,4.0,-999.0,80,0.00,,,-99.99,,2013-06-09 22:42:00,
2013-06-09 15:52:00,64.0,58.0,29.91,WSW,240,4.0,-999.0,80,0.00,,,-99.99,,2013-06-09 22:52:00,
2013-06-09 16:22:00,64.0,58.0,29.90,SW,220,3.0,-999.0,80,0.00,,,-99.99,,2013-06-09 23:22:00,
2013-06-09 16:32:00,64.0,58.0,29.90,SW,220,3.0,-999.0,80,0.00,,,-99.99,,2013-06-09 23:32:00,
2013-06-09 16:42:00,64.0,58.0,29.90,SW,220,3.0,-999.0,80,0.00,,,-99.99,,2013-06-09 23:42:00,
2013-06-09 16:52:00,64.0,58.0,29.90,SW,220,3.0,-999.0,80,0.00,,,-99.99,,2013-06-09 23:52:00,
2013-06-09 17:22:00,62.0,56.0,29.89,SW,220,3.0,-999.0,81,0.00,,,-99.99,,2013-06-10 00:22:00,
2013-06-09 17:32:00,62.0,56.0,29.89,SW,220,3.0,-999.0,81,0.00,,,-99.99,,2013-06-10 00:32:00,
2013-06-09 17:42:00,62.0,56.0,29.89,SW,220,3.0,-999.0,81,0.00,,,-99.99,,2013-06-10 00:42:00,
2013-06-09 17:52:00,62.0,56.0,29.89,SW,220,3.0,-999.0,81,0.00,,,-99.99,,2013-06-10 00:52:00,
2013-06-09 18:22:00,65.0,56.0,29.87,WSW,250,3.0,-999.0,74,0.00,,,-99.99,,2013-06-10 01:22:00,
2013-06-09 18:32:00,65.0,56.0,29.87,WSW,250,3.0,-999.0,74,0.00,,,-99.99,,2013-06-10 01:32:00,
2013-06-09 18:42:00,65.0,56.0,29.87,WSW,250,3.0,-999.0,74,0.00,,,-99.99,,2013-06-10 01:42:00,
2013-06-09 18:52:00,65.0,56.0,29.87,WSW,250,3.0,-999.0,74,0.00,,,-99.99,,2013-06-10 01:52:00,
2013-06-09 19:22:00,59.0,54.0,29.88,West,270,5.0,-999.0,85,0.00,,,-99.99,,2013-06-10 02:22:00,
2013-06-09 19:32:00,59.0,54.0,29.88,West,270,5.0,-999.0,85,0.00,,,-99.99,,2013-06-10 02:32:00,
2013-06-09 19:42:00,59.0,54.0,29.88,West,270,5.0,-999.0,85,0.00,,,-99.99,,2013-06-10 02:42:00,
2013-06-09 19:52:00,59.0,54.0,29.88,West,270,5.0,-999.0,85,0.00,,,-99.99,,2013-06-10 02:52:00,
2013-06-09 20:22:00,58.0,54.0,29.88,North,0,0.0,-999.0,88,0.00,,,-99.99,,2013-06-10 03:22:00,
2013-06-09 20:33:00,58.0,54.0,29.88,North,0,0.0,-999.0,88,0.00,,,-99.99,,2013-06-10 03:33:00,
2013-06-09 20:43:00,58.0,54.0,29.88,North,0,0.0,-999.0,88,0.00,,,-99.99,,2013-06-10 03:43:00,
2013-06-09 20:53:00,58.0,54.0,29.88,North,0,0.0,-999.0,88,0.00,,,-99.99,,2013-06-10 03:53:00,
2013-06-09 21:23:00,57.0,54.0,29.89,South,180,1.0,-999.0,89,0.00,,,-99.99,,2013-06-10 04:23:00,
2013-06-09 21:33:00,57.0,54.0,29.89,South,180,1.0,-999.0,89,0.00,,,-99.99,,2013-06-10 04:33:00,
2013-06-09 21:42:00,57.0,54.0,29.89,South,180,1.0,-999.0,89,0.00,,,-99.99,,2013-06-10 04:42:00,
2013-06-09 21:52:00,57.0,54.0,29.89,South,180,1.0,-999.0,89,0.00,,,-99.99,,2013-06-10 04:52:00,
2013-06-09 22:22:00,56.0,53.0,29.90,North,0,0.0,-999.0,90,0.00,,,-99.99,,2013-06-10 05:22:00,
2013-06-09 22:32:00,56.0,53.0,29.90,North,0,0.0,-999.0,90,0.00,,,-99.99,,2013-06-10 05:32:00,
2013-06-09 22:42:00,56.0,53.0,29.90,North,0,0.0,-999.0,90,0.00,,,-99.99,,2013-06-10 05:42:00,
2013-06-09 22:52:00,56.0,53.0,29.90,North,0,0.0,-999.0,90,0.00,,,-99.99,,2013-06-10 05:52:00,
2013-06-09 23:22:00,56.0,54.0,29.91,North,0,0.0,-999.0,92,0.00,,,-99.99,,2013-06-10 06:22:00,
2013-06-09 23:32:00,56.0,54.0,29.91,North,0,0.0,-999.0,92,0.00,,,-99.99,,2013-06-10 06:32:00,
2013-06-09 23:42:00,56.0,54.0,29.91,North,0,0.0,-999.0,92,0.00,,,-99.99,,2013-06-10 06:42:00,
2013-06-09 23:52:00,56.0,54.0,29.91,North,0,0.0,-999.0,92,0.00,,,-99.99,,2013-06-10 06:52:00,